createdAt,value
2022-10-09T00:04:05.856Z,100.00
2022-10-09T00:09:08.074Z,100.00
2022-10-09T00:14:09.706Z,100.00
2022-10-09T00:19:11.354Z,100.00
2022-10-09T00:24:13.012Z,100.00
2022-10-09T00:29:14.721Z,100.00
2022-10-09T00:34:16.414Z,100.00
2022-10-09T00:39:18.441Z,100.00
2022-10-09T00:44:59.870Z,100.00
2022-10-09T00:50:40.407Z,100.00
2022-10-09T00:55:43.323Z,100.00
2022-10-09T01:00:45.206Z,100.00
2022-10-09T01:06:18.530Z,100.00
2022-10-09T01:11:56.256Z,100.00
2022-10-09T01:17:29.265Z,100.00
2022-10-09T01:23:10.726Z,100.00
2022-10-09T01:28:16.212Z,100.00
2022-10-09T01:33:18.734Z,100.00
2022-10-09T01:38:24.803Z,100.00
2022-10-09T01:43:26.450Z,100.00
2022-10-09T01:48:28.614Z,100.00
2022-10-09T01:53:33.654Z,100.00
2022-10-09T01:58:56.169Z,100.00
2022-10-09T02:04:02.592Z,100.00
2022-10-09T02:09:13.415Z,100.00
2022-10-09T02:14:15.192Z,100.00
2022-10-09T02:19:38.680Z,100.00
2022-10-09T02:24:41.533Z,100.00
2022-10-09T02:29:46.008Z,100.00
2022-10-09T02:34:47.698Z,100.00
2022-10-09T02:39:49.626Z,100.00
2022-10-09T02:44:51.674Z,100.00
2022-10-09T02:49:53.339Z,100.00
2022-10-09T02:54:55.016Z,100.00
2022-10-09T02:59:56.653Z,100.00
2022-10-09T03:05:01.021Z,100.00
2022-10-09T03:10:02.682Z,100.00
2022-10-09T03:15:05.162Z,100.00
2022-10-09T03:20:08.079Z,100.00
2022-10-09T03:25:09.925Z,100.00
2022-10-09T03:30:12.247Z,100.00
2022-10-09T03:35:13.991Z,100.00
2022-10-09T03:40:15.844Z,100.00
2022-10-09T03:45:17.525Z,100.00
2022-10-09T03:50:19.207Z,100.00
2022-10-09T03:55:20.875Z,100.00
2022-10-09T04:00:23.333Z,100.00
2022-10-09T04:05:25.067Z,100.00
2022-10-09T04:10:26.729Z,100.00
2022-10-09T04:15:28.370Z,100.00
2022-10-09T04:20:30.022Z,100.00
2022-10-09T04:25:31.816Z,100.00
2022-10-09T04:30:33.472Z,100.00
2022-10-09T04:35:35.149Z,100.00
2022-10-09T04:40:36.793Z,100.00
2022-10-09T04:45:41.585Z,100.00
2022-10-09T04:50:43.280Z,100.00
2022-10-09T04:55:45.595Z,100.00
2022-10-09T05:00:48.093Z,100.00
2022-10-09T05:05:49.838Z,100.00
2022-10-09T05:10:51.496Z,100.00
2022-10-09T05:15:53.158Z,100.00
2022-10-09T05:20:55.070Z,100.00
2022-10-09T05:26:05.402Z,100.00
2022-10-09T05:31:09.570Z,100.00
2022-10-09T05:36:11.241Z,100.00
2022-10-09T05:41:17.626Z,100.00
2022-10-09T05:46:25.110Z,100.00
2022-10-09T05:51:33.993Z,100.00
2022-10-09T05:56:38.821Z,100.00
2022-10-09T06:01:48.763Z,100.00
2022-10-09T06:06:51.362Z,100.00
2022-10-09T06:11:55.310Z,100.00
2022-10-09T06:16:58.903Z,100.00
2022-10-09T06:22:00.614Z,100.00
2022-10-09T06:27:02.408Z,100.00
2022-10-09T06:32:04.061Z,100.00
2022-10-09T06:37:05.706Z,100.00
2022-10-09T06:42:07.360Z,100.00
2022-10-09T06:47:09.039Z,100.00
2022-10-09T06:52:10.714Z,100.00
2022-10-09T06:57:12.368Z,100.00
2022-10-09T07:02:14.173Z,100.00
2022-10-09T07:07:15.832Z,100.00
2022-10-09T07:12:17.501Z,100.00
2022-10-09T07:17:19.163Z,100.00
2022-10-09T07:22:23.623Z,100.00
2022-10-09T07:27:28.597Z,100.00
2022-10-09T07:32:30.250Z,100.00
2022-10-09T07:37:31.955Z,100.00
2022-10-09T07:42:33.639Z,100.00
2022-10-09T07:47:35.298Z,100.00
2022-10-09T07:52:36.934Z,100.00
2022-10-09T07:57:38.694Z,100.00
2022-10-09T08:02:40.413Z,100.00
2022-10-09T08:07:42.113Z,100.00
2022-10-09T08:12:43.822Z,100.00
2022-10-09T08:17:45.524Z,100.00
2022-10-09T08:22:47.833Z,100.00
2022-10-09T08:27:53.436Z,100.00
2022-10-09T08:32:55.249Z,100.00
2022-10-09T08:37:57.016Z,100.00
2022-10-09T08:43:06.959Z,100.00
2022-10-09T08:48:19.513Z,100.00
2022-10-09T08:53:53.584Z,94.71
2022-10-09T08:58:56.058Z,89.61
2022-10-09T09:04:38.848Z,97.21
2022-10-09T09:10:18.774Z,76.80
2022-10-09T09:15:42.576Z,78.76
2022-10-09T09:21:35.189Z,92.18
2022-10-09T09:26:37.009Z,93.89
2022-10-09T09:31:41.373Z,83.79
2022-10-09T09:36:54.206Z,89.68
2022-10-09T09:42:15.987Z,100.00
2022-10-09T09:47:43.584Z,100.00
2022-10-09T09:52:46.859Z,100.00
2022-10-09T09:57:49.395Z,100.00
2022-10-09T10:03:16.670Z,100.00
2022-10-09T10:08:34.490Z,100.00
2022-10-09T10:13:47.256Z,100.00
2022-10-09T10:18:49.278Z,100.00
2022-10-09T10:23:58.922Z,100.00
2022-10-09T10:29:14.386Z,100.00
2022-10-09T10:34:31.860Z,100.00
2022-10-09T10:40:03.016Z,100.00
2022-10-09T10:45:19.176Z,100.00
2022-10-09T10:50:22.860Z,100.00
2022-10-09T10:55:38.209Z,100.00
2022-10-09T11:01:17.751Z,100.00
2022-10-09T11:06:46.024Z,100.00
2022-10-09T11:12:10.042Z,100.00
2022-10-09T11:17:55.318Z,100.00
2022-10-09T11:23:48.179Z,100.00
2022-10-09T11:29:05.290Z,100.00
2022-10-09T11:34:21.531Z,100.00
2022-10-09T11:39:30.927Z,100.00
2022-10-09T11:45:05.898Z,100.00
2022-10-09T11:51:01.575Z,100.00
2022-10-09T11:56:08.936Z,100.00
2022-10-09T12:01:26.705Z,100.00
2022-10-09T12:06:29.708Z,100.00
2022-10-09T12:11:34.065Z,100.00
2022-10-09T12:16:46.419Z,100.00
2022-10-09T12:22:18.175Z,100.00
2022-10-09T12:27:40.367Z,100.00
2022-10-09T12:32:58.925Z,100.00
2022-10-09T12:38:00.641Z,100.00
2022-10-09T12:43:08.217Z,100.00
2022-10-09T12:48:13.343Z,100.00
2022-10-09T12:53:27.790Z,100.00
2022-10-09T12:58:36.747Z,100.00
2022-10-09T13:03:53.144Z,100.00
2022-10-09T13:09:04.889Z,100.00
2022-10-09T13:14:28.523Z,100.00
2022-10-09T13:19:35.363Z,100.00
2022-10-09T13:24:37.179Z,100.00
2022-10-09T13:29:39.349Z,100.00
2022-10-09T13:34:42.081Z,100.00
2022-10-09T13:39:43.930Z,100.00
2022-10-09T13:44:45.612Z,100.00
2022-10-09T13:49:47.336Z,100.00
2022-10-09T13:54:49.137Z,100.00
2022-10-09T13:59:50.768Z,100.00
2022-10-09T14:04:52.806Z,100.00
2022-10-09T14:09:54.477Z,100.00
2022-10-09T14:14:56.174Z,100.00
2022-10-09T14:19:58.078Z,100.00
2022-10-09T14:24:59.758Z,100.00
2022-10-09T14:30:01.731Z,100.00
2022-10-09T14:35:03.724Z,100.00
2022-10-09T14:40:05.854Z,100.00
2022-10-09T14:45:09.393Z,100.00
2022-10-09T14:50:11.297Z,100.00
2022-10-09T14:55:13.030Z,100.00
2022-10-09T15:00:15.340Z,100.00
2022-10-09T15:05:17.171Z,100.00
2022-10-09T15:10:18.832Z,100.00
2022-10-09T15:15:20.498Z,100.00
2022-10-09T15:20:22.265Z,100.00
2022-10-09T15:25:25.263Z,100.00
2022-10-09T15:30:28.386Z,100.00
2022-10-09T15:35:31.893Z,100.00
2022-10-09T15:40:47.903Z,100.00
2022-10-09T15:45:51.005Z,100.00
2022-10-09T15:50:53.695Z,100.00
2022-10-09T15:55:55.802Z,100.00
2022-10-09T16:01:05.933Z,100.00
2022-10-09T16:06:12.967Z,100.00
2022-10-09T16:11:21.689Z,100.00
2022-10-09T16:16:28.158Z,100.00
2022-10-09T16:21:29.941Z,100.00
2022-10-09T16:26:31.627Z,100.00
2022-10-09T16:31:35.751Z,100.00
2022-10-09T16:36:37.393Z,100.00
2022-10-09T16:41:41.935Z,100.00
2022-10-09T16:46:43.874Z,100.00
2022-10-09T16:51:45.693Z,100.00
2022-10-09T16:56:47.494Z,100.00
2022-10-09T17:01:49.619Z,100.00
2022-10-09T17:06:52.320Z,100.00
2022-10-09T17:11:54.030Z,100.00
2022-10-09T17:16:55.958Z,100.00
2022-10-09T17:21:57.718Z,100.00
2022-10-09T17:26:59.784Z,100.00
2022-10-09T17:32:01.479Z,100.00
2022-10-09T17:37:03.155Z,100.00
2022-10-09T17:42:04.858Z,100.00
2022-10-09T17:47:06.514Z,100.00
2022-10-09T17:52:08.175Z,100.00
2022-10-09T17:57:12.412Z,100.00
2022-10-09T18:02:14.201Z,100.00
2022-10-09T18:07:19.367Z,100.00
2022-10-09T18:12:21.099Z,100.00
2022-10-09T18:17:25.941Z,100.00
2022-10-09T18:22:27.650Z,100.00
2022-10-09T18:27:29.893Z,100.00
2022-10-09T18:32:31.725Z,100.00
2022-10-09T18:37:34.294Z,100.00
2022-10-09T18:42:36.323Z,100.00
2022-10-09T18:47:39.141Z,100.00
2022-10-09T18:52:43.279Z,100.00
2022-10-09T18:57:49.411Z,100.00
2022-10-09T19:02:51.071Z,100.00
2022-10-09T19:07:52.993Z,100.00
2022-10-09T19:12:55.144Z,100.00
2022-10-09T19:17:56.945Z,100.00
2022-10-09T19:22:58.816Z,100.00
2022-10-09T19:28:00.670Z,100.00
2022-10-09T19:33:02.315Z,100.00
2022-10-09T19:38:04.378Z,100.00
2022-10-09T19:43:06.421Z,100.00
2022-10-09T19:48:14.062Z,100.00
2022-10-09T19:53:15.749Z,100.00
2022-10-09T19:58:18.001Z,100.00
2022-10-09T20:03:20.457Z,100.00
2022-10-09T20:08:22.129Z,100.00
2022-10-09T20:13:23.825Z,100.00
2022-10-09T20:18:25.680Z,100.00
2022-10-09T20:23:27.546Z,100.00
2022-10-09T20:28:32.700Z,100.00
2022-10-09T20:33:37.379Z,100.00
2022-10-09T20:38:45.371Z,100.00
2022-10-09T20:43:53.116Z,100.00
2022-10-09T20:48:56.133Z,100.00
2022-10-09T20:54:00.088Z,100.00
2022-10-09T20:59:02.974Z,100.00
2022-10-09T21:04:05.570Z,100.00
2022-10-09T21:09:07.926Z,100.00
2022-10-09T21:14:10.349Z,100.00
2022-10-09T21:19:12.687Z,100.00
2022-10-09T21:24:14.368Z,100.00
2022-10-09T21:29:16.216Z,100.00
2022-10-09T21:34:17.853Z,100.00
2022-10-09T21:39:19.701Z,100.00
2022-10-09T21:44:21.754Z,100.00
2022-10-09T21:49:27.273Z,100.00
2022-10-09T21:54:29.211Z,100.00
2022-10-09T21:59:30.938Z,100.00
2022-10-09T22:04:33.018Z,100.00
2022-10-09T22:09:34.684Z,100.00
2022-10-09T22:14:36.376Z,100.00
2022-10-09T22:19:38.012Z,100.00
2022-10-09T22:24:39.658Z,100.00
2022-10-09T22:29:41.367Z,100.00
2022-10-09T22:34:42.988Z,100.00
2022-10-09T22:39:44.615Z,100.00
2022-10-09T22:44:46.396Z,100.00
2022-10-09T22:49:50.349Z,100.00
2022-10-09T22:54:53.389Z,100.00
2022-10-09T22:59:55.101Z,100.00
2022-10-09T23:04:57.829Z,100.00
2022-10-09T23:09:59.580Z,100.00
2022-10-09T23:15:01.248Z,100.00
2022-10-09T23:20:02.988Z,100.00
2022-10-09T23:25:05.443Z,100.00
2022-10-09T23:30:08.364Z,100.00
2022-10-09T23:35:10.027Z,100.00
2022-10-09T23:40:11.702Z,100.00
2022-10-09T23:45:13.547Z,100.00
2022-10-09T23:50:15.290Z,100.00
2022-10-09T23:55:17.024Z,100.00
